Latest Weather Observations for Holsworthy

IDN60801

Issued at 11:05 pm EDT Wednesday 22 October 2014 (issued every 30 minutes, with the page automatically refreshed every 10 minutes)

About weather observations | Map of weather stations | Latest weather observations for NSW | Other Formats
Station Details ID: 066161 Name: HOLSWORTHY AERODROME AWS Lat: -33.99 Lon: 150.95 Height: 68.16 m
Data from the previous 72 hours. | See also: Recent months at Holsworthy
Date/Time
EDT
Temp
°C
App
Temp
°C
Dew
Point
Rel
Hum
%
Delta-T
°C
Wind Press
QNH
hPa
Press
MSL
hPa
Rain
since 9 am
mm
Dir
 
Spd
km/h
Gust
km/h
Spd
kts
Gust
kts
22/11:00pm 15.7 14.6 12.1 79 2.0 ESE 9 9 5 5 1020.5 1020.4 0.0
22/10:30pm 16.0 15.5 12.0 77 2.2 E 6 7 3 4 1020.6 1020.5 0.0
22/10:00pm 16.8 16.1 11.9 73 2.7 ENE 7 7 4 4 1020.5 1020.4 0.0
22/09:30pm 17.0 16.3 11.9 72 2.8 NE 7 11 4 6 1020.4 1020.3 0.0
22/09:00pm 17.3 16.2 12.0 71 2.9 ENE 9 13 5 7 1020.4 1020.3 0.0
22/08:30pm 17.5 16.5 12.2 71 2.9 ENE 9 11 5 6 1020.1 1020.0 0.0
22/08:00pm 18.0 16.3 12.5 70 3.1 ENE 13 19 7 10 1020.0 1019.9 0.0
22/07:30pm 18.2 16.5 12.4 69 3.2 ENE 13 19 7 10 1020.0 1019.9 0.0
22/07:00pm 19.0 16.9 12.5 66 3.6 ENE 15 20 8 11 1019.8 1019.7 0.0
22/06:30pm 20.0 17.9 12.5 62 4.2 ENE 15 24 8 13 1019.8 1019.7 0.0
22/06:00pm 20.7 17.8 12.4 59 4.7 ENE 19 24 10 13 1019.8 1019.7 0.0
22/05:30pm 21.3 18.4 12.2 56 5.1 ENE 19 28 10 15 1019.9 1019.8 0.0
22/05:00pm 21.8 18.8 12.4 55 5.3 ENE 20 33 11 18 1020.0 1019.9 0.0
22/04:30pm 22.6 19.6 12.5 53 5.8 ENE 20 26 11 14 1020.1 1020.0 0.0
22/04:00pm 22.4 19.5 12.4 53 5.7 ENE 19 26 10 14 1020.4 1020.3 0.0
22/03:30pm 23.2 20.8 12.8 52 6.0 E 17 22 9 12 1020.8 1020.7 0.0
22/03:00pm 22.9 19.3 9.7 43 7.2 N 19 28 10 15 1021.3 1021.2 0.0
22/02:30pm 22.9 19.8 10.3 45 6.9 NE 17 26 9 14 1021.9 1021.8 0.0
22/02:00pm 22.2 18.9 9.7 45 6.7 NNE 17 24 9 13 1022.6 1022.5 0.0
22/01:30pm 22.5 20.3 10.9 48 6.4 NE 13 26 7 14 1023.2 1023.1 0.0
22/01:00pm 21.3 17.6 9.5 47 6.3 ENE 19 24 10 13 1023.7 1023.6 0.0
22/12:30pm 20.7 17.9 9.9 50 5.8 NNE 15 24 8 13 1024.6 1024.5 0.0
22/12:00pm 20.6 16.6 10.4 52 5.5 N 22 28 12 15 1025.3 1025.2 0.0
22/11:30am 20.6 16.8 9.8 50 5.8 N 20 26 11 14 1025.9 1025.8 0.0
22/11:00am 19.3 15.6 9.5 53 5.2 N 19 28 10 15 1026.2 1026.1 0.0
22/10:30am 19.2 15.1 8.5 50 5.6 NNE 20 28 11 15 1026.6 1026.5 0.0
22/10:00am 18.7 15.5 9.8 56 4.7 NNE 17 22 9 12 1026.8 1026.7 0.0
22/09:30am 17.8 14.2 8.4 54 4.8 N 17 22 9 12 1027.0 1026.9 0.0
22/09:00am 17.6 14.3 7.9 53 4.9 N 15 20 8 11 1027.1 1027.0 0.0
22/08:30am 16.9 15.0 9.1 60 4.1 NNW 9 13 5 7 1027.2 1027.1 0.0
22/08:00am 15.9 14.4 9.3 65 3.4 N 7 9 4 5 1027.3 1027.2 0.0
22/07:30am 14.8 15.2 11.2 79 1.9 CALM 0 0 0 0 1027.5 1027.4 0.0
22/07:00am 13.6 13.9 10.9 84 1.4 CALM 0 0 0 0 1027.5 1027.4 0.0
22/06:30am 13.3 12.4 10.8 85 1.3 ESE 6 7 3 4 1027.4 1027.3 0.0
22/06:00am 12.9 12.7 10.4 85 1.3 W 2 9 1 5 1027.3 1027.2 0.0
22/05:30am 13.2 13.4 10.4 83 1.5 CALM 0 0 0 0 1027.2 1027.1 0.0
22/05:00am 13.1 12.1 10.3 83 1.4 E 6 7 3 4 1027.2 1027.1 0.0
22/04:30am 12.9 13.0 10.1 83 1.4 CALM 0 0 0 0 1027.4 1027.3 0.0
22/04:00am 13.5 12.1 9.6 77 2.0 SE 7 9 4 5 1027.8 1027.7 0.0
22/03:30am 13.9 12.6 9.9 77 2.1 E 7 9 4 5 1028.1 1028.0 0.0
22/03:00am 13.9 12.7 9.7 76 2.2 ENE 6 7 3 4 1028.3 1028.2 0.0
22/02:30am 13.8 12.7 9.8 77 2.1 NNE 6 7 3 4 1028.8 1028.7 0.0
22/02:00am 13.5 13.6 10.3 81 1.7 CALM 0 0 0 0 1029.2 1029.1 0.0
22/01:30am 13.9 12.8 9.9 77 2.1 ENE 6 6 3 3 1029.6 1029.4 0.0
22/01:00am 14.2 12.8 9.6 74 2.4 ENE 7 15 4 8 1030.2 1030.0 0.0
22/12:30am 14.1 12.2 9.1 72 2.6 E 9 11 5 6 1030.6 1030.4 0.0
22/12:00am 14.9 13.5 8.8 67 3.1 NE 6 7 3 4 1030.9 1030.7 0.0
 
Date/Time
EDT
Temp
°C
App
Temp
°C
Dew
Point
Rel
Hum
%
Delta-T
°C
Wind Press
QNH
hPa
Press
MSL
hPa
Rain
since 9 am
mm
Dir
 
Spd
km/h
Gust
km/h
Spd
kts
Gust
kts
21/11:30pm 15.1 13.6 9.2 68 3.0 NE 7 11 4 6 1031.1 1030.9 0.0
21/11:00pm 15.2 13.7 9.3 68 3.0 NE 7 13 4 7 1031.3 1031.1 0.0
21/10:30pm 15.3 13.9 9.4 68 3.1 NNE 7 15 4 8 1031.3 1031.1 0.0
21/10:00pm 15.4 14.2 9.5 68 3.0 NE 6 9 3 5 1031.4 1031.2 0.0
21/09:30pm 15.4 13.9 9.1 66 3.2 ENE 7 9 4 5 1031.4 1031.2 0.0
21/09:00pm 15.9 14.5 9.6 66 3.3 E 7 17 4 9 1031.3 1031.1 0.0
21/08:30pm 15.7 13.9 9.4 66 3.3 ENE 9 13 5 7 1031.1 1030.9 0.0
21/08:00pm 15.7 14.3 9.4 66 3.2 ENE 7 13 4 7 1030.8 1030.6 0.0
21/07:30pm 15.8 13.8 8.5 62 3.7 ENE 9 13 5 7 1030.5 1030.3 0.0
21/07:00pm 16.0 13.9 8.2 60 3.9 ENE 9 11 5 6 1030.4 1030.2 0.0
21/06:30pm 16.2 13.7 8.2 59 4.1 E 11 13 6 7 1030.3 1030.1 0.0
21/06:00pm 16.5 13.3 8.5 59 4.1 E 15 22 8 12 1030.2 1030.0 0.0
21/05:30pm 16.7 13.9 8.4 58 4.2 E 13 17 7 9 1030.2 1030.0 0.0
21/05:00pm 16.9 14.0 8.1 56 4.4 E 13 20 7 11 1030.2 1030.0 0.0
21/04:30pm 17.2 14.0 8.4 56 4.5 E 15 22 8 12 1030.1 1029.9 0.0
21/04:00pm 17.4 14.4 7.7 53 4.9 ESE 13 20 7 11 1030.2 1030.0 0.0
21/03:30pm 17.4 14.5 8.0 54 4.8 E 13 17 7 9 1030.4 1030.2 0.0
21/03:00pm 17.1 13.2 7.2 52 4.9 ESE 17 26 9 14 1030.7 1030.5 0.0
21/02:30pm 17.2 13.4 7.5 53 4.9 E 17 20 9 11 1031.1 1030.9 0.0
21/02:00pm 17.2 13.8 7.5 53 4.8 E 15 22 8 12 1031.6 1031.4 0.0
21/01:30pm 17.1 13.7 7.5 53 4.8 ENE 15 20 8 11 1032.0 1031.9 0.0
21/01:00pm 17.3 14.2 7.4 52 4.9 E 13 20 7 11 1032.3 1032.2 0.0
21/12:30pm 17.1 14.1 7.7 54 4.8 E 13 17 7 9 1032.5 1032.4 0.0
21/12:00pm 17.1 13.8 8.0 55 4.6 E 15 20 8 11 1032.8 1032.7 0.0
21/11:30am 16.9 13.9 7.5 54 4.7 E 13 19 7 10 1032.9 1032.8 0.0
21/11:00am 17.0 14.2 8.4 57 4.4 E 13 20 7 11 1033.0 1032.9 0.0
21/10:30am 17.0 13.8 8.4 57 4.4 ESE 15 20 8 11 1033.0 1032.9 0.0
21/10:00am 16.6 13.7 8.3 58 4.2 ENE 13 20 7 11 1033.1 1033.0 0.0
21/09:30am 16.5 13.9 9.4 63 3.7 ESE 13 17 7 9 1032.9 1032.8 0.0
21/09:00am 15.5 13.9 10.1 70 2.8 SSE 9 13 5 7 1032.8 1032.7 0.2
21/08:30am 14.8 13.1 10.0 73 2.5 SSE 9 13 5 7 1032.6 1032.5 0.2
21/08:00am 14.4 12.9 10.6 78 2.0 SSE 9 13 5 7 1032.3 1032.2 0.2
21/07:30am 13.7 12.3 10.9 83 1.5 S 9 13 5 7 1032.0 1031.9 0.2
21/07:00am 13.4 12.5 11.5 88 1.0 SSW 7 9 4 5 1031.8 1031.7 0.2
21/06:30am 13.0 11.7 11.2 89 1.0 SSW 9 11 5 6 1031.5 1031.3 0.2
21/06:00am 12.9 11.6 11.3 90 0.8 SSW 9 13 5 7 1031.3 1031.1 0.2
21/05:30am 13.2 13.7 11.6 90 0.9 CALM 0 4 0 2 1031.0 1030.8 0.2
21/05:00am 13.1 11.8 11.3 89 0.9 SSE 9 11 5 6 1031.1 1030.9 0.2
21/04:30am 13.1 10.6 11.2 88 1.0 SSE 15 20 8 11 1031.1 1030.9 0.2
21/04:00am 13.0 11.7 11.4 90 0.8 S 9 13 5 7 1031.3 1031.1 0.2
21/03:30am 13.3 12.6 12.0 92 0.7 S 7 9 4 5 1031.3 1031.1 0.2
21/03:00am 13.4 12.9 12.0 91 0.7 ESE 6 9 3 5 1031.4 1031.2 0.2
21/02:30am 13.5 12.9 12.4 93 0.6 ESE 7 9 4 5 1031.6 1031.4 0.2
21/02:00am 13.4 11.6 12.1 92 0.7 SSE 13 17 7 9 1031.7 1031.5 0.0
21/01:30am 13.9 11.3 11.9 88 1.1 SSE 17 24 9 13 1031.8 1031.7 0.0
21/01:00am 14.6 12.9 11.2 80 1.8 SSE 11 15 6 8 1031.7 1031.5 0.0
21/12:30am 15.0 15.1 11.4 79 1.9 S 2 7 1 4 1032.0 1031.9 0.0
21/12:00am 15.0 14.2 11.2 78 2.0 SE 6 7 3 4 1032.1 1032.0 0.0
 
Date/Time
EDT
Temp
°C
App
Temp
°C
Dew
Point
Rel
Hum
%
Delta-T
°C
Wind Press
QNH
hPa
Press
MSL
hPa
Rain
since 9 am
mm
Dir
 
Spd
km/h
Gust
km/h
Spd
kts
Gust
kts
20/11:30pm 15.4 13.3 11.2 76 2.3 ESE 13 28 7 15 1032.1 1032.0 0.0
20/11:00pm 15.6 13.5 11.0 74 2.4 ESE 13 20 7 11 1032.1 1032.0 0.0
20/10:30pm 15.5 12.6 10.9 74 2.5 SE 17 28 9 15 1032.1 1032.0 0.0
20/10:00pm 15.6 13.1 11.0 74 2.4 SE 15 22 8 12 1032.2 1032.1 0.0
20/09:30pm 15.8 14.5 11.4 75 2.4 ESE 9 13 5 7 1032.1 1032.0 0.0
20/09:00pm 15.9 13.5 11.3 74 2.5 SSE 15 28 8 15 1031.9 1031.8 0.0
20/08:30pm 16.1 14.6 10.6 70 2.9 SE 9 13 5 7 1031.5 1031.3 0.0
20/08:00pm 16.2 14.9 9.8 66 3.3 SSE 7 9 4 5 1031.2 1031.0 0.0
20/07:30pm 16.0 14.6 9.4 65 3.4 S 7 9 4 5 1030.9 1030.7 0.0
20/07:00pm 16.0 13.9 9.9 67 3.2 S 11 19 6 10 1030.7 1030.5 0.0
20/06:30pm 15.9 12.8 10.2 69 3.0 SSE 17 28 9 15 1030.5 1030.3 0.0
20/06:00pm 16.4 12.4 10.3 67 3.2 SE 22 33 12 18 1030.3 1030.1 0.0
20/05:30pm 16.7 12.5 9.9 64 3.6 S 22 35 12 19 1030.1 1029.9 0.0
20/05:00pm 16.9 12.8 10.1 64 3.6 S 22 32 12 17 1030.1 1029.9 0.0
20/04:30pm 17.1 13.4 10.0 63 3.8 SSE 20 32 11 17 1030.0 1029.8 0.0
20/04:00pm 17.0 13.0 10.6 66 3.4 SSE 22 39 12 21 1030.1 1029.9 0.0
20/03:30pm 17.0 12.8 11.1 68 3.2 SSE 24 35 13 19 1029.9 1029.7 0.0
20/03:00pm 17.2 12.6 11.0 67 3.3 SSE 26 39 14 21 1030.0 1029.8 0.0
20/02:30pm 17.0 12.5 11.5 70 3.0 SSE 26 39 14 21 1030.3 1030.1 0.0
20/02:00pm 16.9 12.5 11.6 71 2.9 SSE 26 35 14 19 1030.6 1030.4 0.0
20/01:30pm 17.8 14.3 12.3 70 3.1 S 22 33 12 18 1030.5 1030.3 0.0
20/01:00pm 17.6 14.3 12.7 73 2.7 S 22 32 12 17 1030.6 1030.4 0.0
20/12:30pm 18.5 14.4 11.3 63 3.9 S 24 43 13 23 1030.6 1030.4 0.0
20/12:00pm 18.8 14.3 10.1 57 4.6 S 24 35 13 19 1030.6 1030.4 0.0
20/11:30am 19.2 14.7 10.2 56 4.8 S 24 35 13 19 1030.8 1030.6 0.0
20/11:00am 18.2 14.2 10.6 61 4.1 S 22 32 12 17 1030.8 1030.6 0.0
20/10:30am 18.1 13.9 11.0 63 3.9 SSE 24 39 13 21 1030.7 1030.5 0.0
20/10:24am 17.9 12.3 10.3 61 4.1 SSE 30 48 16 26 1030.7 1030.5 0.0
20/10:00am 18.3 13.0 9.9 58 4.4 S 28 44 15 24 1030.3 1030.1 0.0
20/09:30am 18.2 13.1 10.6 61 4.1 S 28 46 15 25 1029.9 1029.7 0.0
20/09:04am 18.2 13.0 10.1 59 4.3 S 28 50 15 27 1029.1 1029.0 0.0
20/09:00am 18.4 13.6 10.3 59 4.3 S 26 44 14 24 1029.1 1029.0 0.0
20/08:39am 17.7 12.7 11.0 65 3.6 S 28 52 15 28 1028.6 1028.5 0.0
20/08:30am 18.0 13.7 10.9 63 3.8 S 24 33 13 18 1028.4 1028.3 0.0
20/08:00am 17.9 13.0 11.2 65 3.6 S 28 48 15 26 1027.7 1027.6 0.0
20/07:30am 17.5 11.8 11.3 67 3.4 S 32 56 17 30 1026.6 1026.5 0.0
20/07:00am 17.2 10.7 11.7 70 3.0 SSE 37 61 20 33 1025.5 1025.4 0.0
20/06:30am 16.9 10.3 12.6 76 2.4 SSE 39 63 21 34 1024.5 1024.4 0.0
20/06:00am 17.4 11.2 13.7 79 2.1 S 39 69 21 37 1023.7 1023.6 0.0
20/05:40am 18.0 13.6 14.1 78 2.2 S 30 56 16 30 1023.3 1023.2 0.0
20/05:30am 17.4 14.3 13.5 78 2.2 S 22 35 12 19 1023.1 1023.0 0.0
20/05:00am 13.0 11.5 11.9 93 0.6 WSW 11 15 6 8 1021.6 1021.5 0.0
20/04:30am 12.8 12.1 11.5 92 0.7 WSW 6 7 3 4 1021.3 1021.2 0.0
20/04:00am 12.7 12.0 11.3 91 0.7 WSW 6 9 3 5 1021.3 1021.2 0.0
20/03:30am 13.2 13.8 11.8 91 0.7 CALM 0 0 0 0 1021.6 1021.5 0.0
20/03:00am 13.6 14.2 12.0 90 0.9 CALM 0 0 0 0 1021.9 1021.8 0.0
20/02:30am 13.7 14.3 11.9 89 1.0 CALM 0 0 0 0 1021.9 1021.8 0.0
20/02:00am 14.2 14.1 12.2 88 1.1 SW 4 7 2 4 1021.7 1021.6 0.0
20/01:30am 14.9 14.5 12.4 85 1.4 E 6 7 3 4 1022.3 1022.2 0.0
20/01:00am 14.6 14.2 12.3 86 1.2 SE 6 7 3 4 1022.5 1022.4 0.0
20/12:30am 14.5 14.5 12.4 87 1.1 SW 4 6 2 3 1022.9 1022.8 0.0
20/12:00am 14.8 14.2 11.8 82 1.6 SSW 6 7 3 4 1023.2 1023.1 0.0
 
Date/Time
EDT
Temp
°C
App
Temp
°C
Dew
Point
Rel
Hum
%
Delta-T
°C
Wind Press
QNH
hPa
Press
MSL
hPa
Rain
since 9 am
mm
Dir
 
Spd
km/h
Gust
km/h
Spd
kts
Gust
kts
19/11:30pm 16.2 15.7 12.6 79 2.0 SSE 7 9 4 5 1023.2 1023.1 0.0

Other Formats:

Comma delimited format used in spreadsheet applications
http://www.bom.gov.au/fwo/IDN60801/IDN60801.95761.axf

JavaScript Object Notation format (JSON) in row-major order
http://www.bom.gov.au/fwo/IDN60801/IDN60801.95761.json